Time;durP1;ratioP1;P1;durP2;ratioP2;P2;SDS_P1;SDS_P2;PMS_P1;PMS_P2;Temp;Humidity;BMP_temperature;BMP_pressure;BME280_temperature;BME280_humidity;BME280_pressure;Samples;Min_cycle;Max_cycle;Signal;HPM_P1;HPM_P2
2022/04/10 00:01:58;;;;;;;19.35;2.80;;;2.30;99.90;;;;;;5097306;28;20047;-77
2022/04/10 00:04:24;;;;;;;20.13;3.22;;;2.30;99.90;;;;;;5097241;28;20101;-77
2022/04/10 00:06:50;;;;;;;15.57;2.95;;;2.30;99.90;;;;;;5114814;28;20043;-77
2022/04/10 00:09:15;;;;;;;14.80;2.47;;;2.30;99.90;;;;;;5097039;28;20123;-77
2022/04/10 00:11:41;;;;;;;22.58;4.57;;;2.30;99.90;;;;;;5115528;28;20036;-77
2022/04/10 00:14:07;;;;;;;17.35;2.80;;;2.30;99.90;;;;;;5114569;28;20386;-77
2022/04/10 00:16:33;;;;;;;24.60;3.28;;;2.20;99.90;;;;;;5115412;28;20075;-77
2022/04/10 00:19:04;;;;;;;20.90;2.63;;;2.20;99.90;;;;;;5114703;28;20036;-77
2022/04/10 00:21:31;;;;;;;19.17;3.33;;;2.20;99.90;;;;;;5096928;28;20104;-77
2022/04/10 00:23:57;;;;;;;15.95;2.58;;;2.20;99.90;;;;;;5115130;28;20053;-77
2022/04/10 00:26:23;;;;;;;15.13;3.13;;;2.20;99.90;;;;;;5096188;28;20040;-77
2022/04/10 00:28:51;;;;;;;16.10;2.35;;;2.20;99.90;;;;;;5096910;28;20047;-77
2022/04/10 00:31:18;;;;;;;17.90;2.45;;;2.20;99.90;;;;;;5115191;28;20043;-77
2022/04/10 00:33:44;;;;;;;18.65;2.72;;;2.20;99.90;;;;;;5114207;28;20083;-77
2022/04/10 00:36:10;;;;;;;13.07;2.13;;;2.20;99.90;;;;;;5096941;28;20511;-77
2022/04/10 00:38:36;;;;;;;16.67;2.70;;;2.10;99.90;;;;;;5114947;28;20126;-77
2022/04/10 00:41:02;;;;;;;17.00;1.90;;;2.10;99.90;;;;;;5078641;28;20052;-77
2022/04/10 00:43:32;;;;;;;18.70;3.28;;;2.10;99.90;;;;;;5114827;28;20039;-77
2022/04/10 00:45:59;;;;;;;13.80;2.25;;;2.10;99.90;;;;;;5114687;28;20475;-77
2022/04/10 00:48:25;;;;;;;18.65;3.60;;;2.10;99.90;;;;;;5113904;28;20040;-77
2022/04/10 00:53:38;;;;;;;22.67;3.20;;;2.00;99.90;;;;;;5114596;28;20052;-77
2022/04/10 00:56:04;;;;;;;24.92;3.10;;;2.00;99.90;;;;;;5113657;28;20046;-77
2022/04/10 00:58:31;;;;;;;13.82;2.13;;;2.00;99.90;;;;;;5096103;28;20043;-77
2022/04/10 01:00:58;;;;;;;17.27;2.85;;;2.00;99.90;;;;;;5114413;28;20044;-77
2022/04/10 01:03:24;;;;;;;19.42;2.83;;;2.00;99.90;;;;;;5113609;28;20058;-77
2022/04/10 01:05:50;;;;;;;12.45;3.42;;;1.90;99.90;;;;;;5114526;28;20071;-77
2022/04/10 01:08:16;;;;;;;20.30;2.30;;;1.90;99.90;;;;;;5113575;28;20040;-77
2022/04/10 01:10:42;;;;;;;22.17;2.85;;;1.90;99.90;;;;;;5114484;28;20055;-77
2022/04/10 01:13:09;;;;;;;15.75;4.07;;;1.90;99.90;;;;;;5114151;28;20043;-77
2022/04/10 01:15:35;;;;;;;15.02;2.83;;;1.90;99.90;;;;;;5095521;28;20079;-77
2022/04/10 01:18:01;;;;;;;21.52;2.28;;;1.90;99.90;;;;;;5114309;28;20111;-77
2022/04/10 01:20:27;;;;;;;14.77;3.83;;;1.90;99.90;;;;;;5114342;28;20439;-77
2022/04/10 01:22:54;;;;;;;16.90;3.20;;;1.90;99.90;;;;;;5113335;28;20040;-77
2022/04/10 01:25:20;;;;;;;17.60;3.10;;;1.80;99.90;;;;;;5095789;28;20054;-77
2022/04/10 01:27:46;;;;;;;19.30;3.55;;;1.90;99.90;;;;;;5114021;28;20043;-77
2022/04/10 01:30:14;;;;;;;21.70;2.80;;;1.80;99.90;;;;;;5113195;28;20543;-77
2022/04/10 01:32:40;;;;;;;12.65;2.67;;;1.80;99.90;;;;;;5114109;28;20159;-77
2022/04/10 01:35:06;;;;;;;17.90;2.80;;;1.80;99.90;;;;;;5114066;28;20504;-77
2022/04/10 01:37:37;;;;;;;12.02;2.10;;;1.90;99.90;;;;;;5094654;28;20135;-77
2022/04/10 01:40:04;;;;;;;11.52;2.50;;;1.90;99.90;;;;;;5114087;28;20172;-77
2022/04/10 01:42:29;;;;;;;17.85;2.85;;;1.90;99.90;;;;;;5114038;28;20043;-77
2022/04/10 01:44:55;;;;;;;21.38;4.07;;;1.90;99.90;;;;;;5113175;28;20401;-77
2022/04/10 01:47:21;;;;;;;17.10;3.13;;;1.90;99.90;;;;;;5095694;28;20555;-77
2022/04/10 01:49:47;;;;;;;14.48;3.42;;;2.00;99.90;;;;;;5113958;28;20050;-77
2022/04/10 01:52:12;;;;;;;22.60;3.17;;;1.90;99.90;;;;;;5094470;28;20090;-77
2022/04/10 01:54:38;;;;;;;12.27;2.53;;;1.90;99.90;;;;;;5095812;28;20083;-77
2022/04/10 01:57:05;;;;;;;17.13;3.20;;;2.00;99.90;;;;;;5113769;28;20032;-77
2022/04/10 01:59:31;;;;;;;15.38;2.97;;;2.00;99.90;;;;;;5113097;28;20043;-77
2022/04/10 02:01:57;;;;;;;12.52;2.90;;;1.90;99.90;;;;;;5113787;28;20117;-77
2022/04/10 02:04:23;;;;;;;11.82;2.67;;;1.90;99.90;;;;;;5113525;28;20042;-77
2022/04/10 02:06:48;;;;;;;11.18;2.53;;;1.90;99.90;;;;;;5095327;28;20501;-77
2022/04/10 02:09:15;;;;;;;19.13;3.22;;;1.80;99.90;;;;;;5113751;28;20039;-77
2022/04/10 02:11:41;;;;;;;16.20;3.10;;;1.80;99.90;;;;;;5098678;28;20051;-77
2022/04/10 02:14:07;;;;;;;19.23;4.50;;;1.90;99.90;;;;;;5117582;28;20104;-77
2022/04/10 02:16:32;;;;;;;19.73;2.83;;;1.90;99.90;;;;;;5117829;28;20039;-77
2022/04/10 02:18:58;;;;;;;13.25;2.22;;;1.90;99.90;;;;;;5116894;28;20107;-77
2022/04/10 02:21:24;;;;;;;8.57;1.48;;;1.90;99.90;;;;;;5117387;28;20048;-77
2022/04/10 02:23:50;;;;;;;13.57;2.30;;;2.00;99.90;;;;;;5117684;28;20040;-77
2022/04/10 02:26:15;;;;;;;10.93;2.05;;;2.00;99.90;;;;;;5116684;28;20063;-77
2022/04/10 02:28:42;;;;;;;9.85;1.95;;;2.10;99.90;;;;;;5099440;28;20386;-77
2022/04/10 02:31:08;;;;;;;9.10;2.15;;;2.20;99.90;;;;;;5117396;28;20132;-77
2022/04/10 02:33:35;;;;;;;15.65;2.88;;;2.40;99.90;;;;;;5116441;28;20502;-77
2022/04/10 02:36:01;;;;;;;13.18;2.15;;;2.70;99.90;;;;;;5117167;28;20059;-77
2022/04/10 02:38:27;;;;;;;14.02;2.42;;;2.80;99.90;;;;;;5117456;28;20093;-77
2022/04/10 02:40:53;;;;;;;8.63;1.95;;;2.80;99.90;;;;;;5116638;28;20412;-77
2022/04/10 02:43:19;;;;;;;11.50;2.00;;;2.80;99.90;;;;;;5117226;28;20039;-77
2022/04/10 02:45:45;;;;;;;17.45;2.42;;;2.80;99.90;;;;;;5082210;28;20496;-77
2022/04/10 02:48:11;;;;;;;14.63;2.83;;;2.80;99.90;;;;;;5116334;28;20035;-77
2022/04/10 02:50:38;;;;;;;17.70;2.65;;;2.70;99.90;;;;;;5117151;28;20483;-77
2022/04/10 02:53:04;;;;;;;9.35;2.28;;;2.70;99.90;;;;;;5098441;28;20453;-77
2022/04/10 02:55:30;;;;;;;14.73;3.60;;;2.70;99.90;;;;;;5116290;28;20055;-77
2022/04/10 02:57:56;;;;;;;7.65;2.05;;;2.70;99.90;;;;;;5117045;28;20032;-77
2022/04/10 03:00:22;;;;;;;17.67;2.33;;;2.70;99.90;;;;;;5098642;28;20445;-77
2022/04/10 03:02:47;;;;;;;13.68;2.08;;;2.70;99.90;;;;;;5097665;28;20062;-77
2022/04/10 03:05:15;;;;;;;10.32;2.15;;;2.70;99.90;;;;;;5098546;28;20058;-77
2022/04/10 03:07:41;;;;;;;11.18;2.17;;;2.70;99.90;;;;;;5098440;28;20059;-77
2022/04/10 03:10:07;;;;;;;9.25;1.63;;;2.70;99.90;;;;;;5116324;28;20111;-77
2022/04/10 03:12:33;;;;;;;13.75;1.83;;;2.70;99.90;;;;;;5098559;28;20394;-76
2022/04/10 03:14:58;;;;;;;7.60;1.90;;;2.80;99.90;;;;;;5097806;28;20048;-77
2022/04/10 03:17:24;;;;;;;7.85;1.35;;;2.90;99.90;;;;;;5098318;28;20181;-75
2022/04/10 03:19:50;;;;;;;3.88;1.20;;;2.90;99.90;;;;;;5116547;28;20054;-77
2022/04/10 03:22:16;;;;;;;6.20;1.10;;;2.90;99.90;;;;;;5115321;28;20044;-76
2022/04/10 03:24:42;;;;;;;0.60;0.57;;;2.90;99.90;;;;;;5116590;28;20089;-76
2022/04/10 03:27:08;;;;;;;6.18;1.00;;;2.80;99.90;;;;;;5098479;28;20116;-76
2022/04/10 03:29:34;;;;;;;6.40;0.82;;;2.80;99.90;;;;;;5097193;28;20484;-76
2022/04/10 03:31:59;;;;;;;5.22;0.95;;;2.80;99.90;;;;;;5116331;28;20044;-77
2022/04/10 03:34:25;;;;;;;4.18;1.35;;;2.80;99.90;;;;;;5116225;28;20044;-76
2022/04/10 03:36:51;;;;;;;4.65;0.82;;;2.90;99.90;;;;;;5096970;28;20043;-77
2022/04/10 03:39:17;;;;;;;6.43;0.80;;;2.90;99.90;;;;;;5097786;28;20083;-77
2022/04/10 03:41:42;;;;;;;1.98;0.85;;;2.90;99.90;;;;;;5116224;28;20039;-77
2022/04/10 03:44:08;;;;;;;1.95;0.88;;;2.80;99.90;;;;;;5115104;28;20401;-77
2022/04/10 03:46:34;;;;;;;4.55;0.57;;;2.80;99.90;;;;;;5098102;28;20074;-77
2022/04/10 03:49:00;;;;;;;8.05;1.05;;;2.70;99.90;;;;;;5115807;28;20598;-77
2022/04/10 03:51:25;;;;;;;2.20;0.80;;;2.70;99.90;;;;;;5115458;28;20031;-77
2022/04/10 03:53:51;;;;;;;4.88;0.77;;;2.60;99.90;;;;;;5115548;28;20127;-77
2022/04/10 03:56:17;;;;;;;7.50;1.10;;;2.60;99.90;;;;;;5080699;28;20542;-77
2022/04/10 03:58:43;;;;;;;7.80;0.90;;;2.60;99.90;;;;;;5097037;28;20058;-77
2022/04/10 04:01:10;;;;;;;1.23;0.60;;;2.50;99.90;;;;;;5115805;28;20113;-77
2022/04/10 04:03:36;;;;;;;7.07;1.00;;;2.50;99.90;;;;;;5115697;28;20044;-77
2022/04/10 04:06:02;;;;;;;7.10;1.10;;;2.40;99.90;;;;;;5115021;28;20038;-77
2022/04/10 04:08:27;;;;;;;6.32;0.90;;;2.40;99.90;;;;;;5115450;28;20479;-77
2022/04/10 04:10:53;;;;;;;3.67;0.95;;;2.40;99.90;;;;;;5115398;28;20040;-77
2022/04/10 04:13:19;;;;;;;3.78;1.00;;;2.30;99.90;;;;;;5114749;28;20051;-77
2022/04/10 04:15:45;;;;;;;5.25;0.90;;;2.30;99.90;;;;;;5115463;28;20046;-77
2022/04/10 04:18:11;;;;;;;4.45;1.05;;;2.20;99.90;;;;;;5096369;28;20063;-77
2022/04/10 04:20:37;;;;;;;7.47;1.30;;;2.20;99.90;;;;;;5096996;28;20043;-77
2022/04/10 04:23:03;;;;;;;8.20;2.05;;;2.20;99.90;;;;;;5115218;28;20134;-77
2022/04/10 04:25:28;;;;;;;7.10;1.30;;;2.20;99.90;;;;;;5114400;28;20134;-76
2022/04/10 04:27:54;;;;;;;8.02;1.00;;;2.10;99.90;;;;;;5097242;28;20097;-77
2022/04/10 04:30:20;;;;;;;9.82;1.20;;;2.10;99.90;;;;;;5096710;28;20445;-77
2022/04/10 04:32:46;;;;;;;13.77;1.30;;;2.10;99.90;;;;;;5095060;28;20052;-77
2022/04/10 04:35:12;;;;;;;6.25;1.08;;;2.10;99.90;;;;;;5096592;28;20040;-77
2022/04/10 04:37:40;;;;;;;6.15;1.30;;;2.10;99.90;;;;;;5115158;28;20441;-77
2022/04/10 04:40:10;;;;;;;4.70;1.42;;;2.00;99.90;;;;;;5114122;28;20092;-77
2022/04/10 04:42:36;;;;;;;10.38;1.63;;;2.00;99.90;;;;;;5096950;28;20043;-77
2022/04/10 04:45:02;;;;;;;8.10;1.02;;;2.00;99.90;;;;;;5096906;28;20049;-77
2022/04/10 04:47:28;;;;;;;5.18;1.10;;;2.00;99.90;;;;;;5114095;28;20479;-77
2022/04/10 04:49:55;;;;;;;12.27;2.22;;;2.00;99.90;;;;;;5114669;28;20043;-76
2022/04/10 04:52:21;;;;;;;11.38;1.30;;;2.00;99.90;;;;;;5114267;28;20087;-77
2022/04/10 04:54:47;;;;;;;2.15;1.02;;;2.00;99.90;;;;;;5114025;28;20058;-77
2022/04/10 04:57:13;;;;;;;6.32;1.50;;;2.00;99.90;;;;;;5114669;28;20185;-77
2022/04/10 04:59:39;;;;;;;7.82;1.35;;;2.00;99.90;;;;;;5114398;28;20498;-77
2022/04/10 05:02:05;;;;;;;4.05;1.52;;;2.00;99.90;;;;;;5113666;28;20125;-76
2022/04/10 05:04:30;;;;;;;8.35;1.30;;;2.00;99.90;;;;;;5114395;28;20079;-76
2022/04/10 05:06:56;;;;;;;7.50;1.58;;;2.10;99.90;;;;;;5114557;28;20053;-76
2022/04/10 05:09:22;;;;;;;6.88;1.42;;;2.10;99.90;;;;;;5113659;28;20539;-77
2022/04/10 05:11:48;;;;;;;11.27;1.75;;;2.10;99.90;;;;;;5114232;28;20122;-77
2022/04/10 05:14:13;;;;;;;11.00;1.75;;;2.20;99.90;;;;;;5114292;28;20596;-76
2022/04/10 05:16:39;;;;;;;7.93;1.90;;;2.30;99.90;;;;;;5113410;28;20497;-76
2022/04/10 05:19:05;;;;;;;9.05;1.27;;;2.40;99.90;;;;;;5095931;28;20097;-76
2022/04/10 05:21:31;;;;;;;6.75;1.38;;;2.50;99.90;;;;;;5113513;28;20046;-76
2022/04/10 05:23:56;;;;;;;4.82;1.40;;;2.60;99.90;;;;;;5096020;28;20079;-76
2022/04/10 05:26:22;;;;;;;7.22;1.40;;;2.60;99.90;;;;;;5114191;28;20044;-76
2022/04/10 05:28:48;;;;;;;9.13;0.98;;;2.60;99.90;;;;;;5113445;28;20042;-76
2022/04/10 05:31:14;;;;;;;7.88;1.67;;;2.70;99.90;;;;;;5114248;28;20501;-77
2022/04/10 05:33:39;;;;;;;6.55;1.33;;;2.70;99.90;;;;;;5114140;28;20040;-77
2022/04/10 05:36:05;;;;;;;4.80;1.25;;;2.70;99.90;;;;;;5113108;28;20075;-77
2022/04/10 05:38:31;;;;;;;7.70;1.33;;;2.70;99.90;;;;;;5114102;28;20044;-77
2022/04/10 05:40:58;;;;;;;11.52;2.35;;;2.70;99.90;;;;;;5095900;28;20394;-77
2022/04/10 05:43:24;;;;;;;5.25;1.50;;;2.70;99.90;;;;;;5078011;28;20059;-77
2022/04/10 05:45:51;;;;;;;10.70;2.00;;;2.80;99.90;;;;;;5114001;28;20044;-77
2022/04/10 05:48:17;;;;;;;5.90;1.23;;;2.80;99.90;;;;;;5114064;28;20039;-77
2022/04/10 05:50:44;;;;;;;8.30;1.65;;;2.90;99.90;;;;;;5113335;28;20501;-77
2022/04/10 05:53:09;;;;;;;7.10;1.58;;;2.90;99.90;;;;;;5095369;28;20423;-77
2022/04/10 05:55:35;;;;;;;7.90;1.00;;;2.90;99.90;;;;;;5113798;28;20051;-77
2022/04/10 05:58:03;;;;;;;7.82;1.25;;;2.90;99.90;;;;;;5094748;28;20055;-77
2022/04/10 06:00:29;;;;;;;9.45;1.35;;;2.90;99.90;;;;;;5095454;28;20048;-77
2022/04/10 06:02:55;;;;;;;14.05;2.15;;;2.90;99.90;;;;;;5113669;28;20051;-77
2022/04/10 06:05:22;;;;;;;6.47;1.38;;;2.90;99.90;;;;;;5094701;28;20042;-77
2022/04/10 06:07:48;;;;;;;11.13;1.75;;;3.00;99.90;;;;;;5113738;28;20486;-77
2022/04/10 06:10:15;;;;;;;7.13;1.48;;;3.10;99.90;;;;;;5113632;28;20051;-77
2022/04/10 06:12:41;;;;;;;11.93;1.98;;;3.20;99.90;;;;;;5094605;28;20391;-77
2022/04/10 06:15:07;;;;;;;14.70;1.65;;;3.20;99.90;;;;;;5095568;28;20113;-77
2022/04/10 06:17:32;;;;;;;6.13;1.42;;;3.30;99.90;;;;;;5095303;28;20104;-77
2022/04/10 06:19:59;;;;;;;6.55;1.35;;;3.40;99.90;;;;;;5095000;28;20043;-77
2022/04/10 06:22:25;;;;;;;5.85;1.70;;;3.40;99.90;;;;;;5113709;28;20459;-77
2022/04/10 06:24:52;;;;;;;6.78;1.65;;;3.60;99.90;;;;;;5112887;28;20162;-77
2022/04/10 06:27:18;;;;;;;6.25;1.20;;;3.70;99.90;;;;;;5113643;28;20059;-77
2022/04/10 06:29:44;;;;;;;9.07;1.20;;;3.80;99.90;;;;;;5095262;28;20046;-77
2022/04/10 06:32:09;;;;;;;9.13;1.50;;;3.80;99.90;;;;;;5112830;28;20040;-77
2022/04/10 06:34:35;;;;;;;6.97;1.30;;;4.00;99.90;;;;;;5113729;28;20051;-76
2022/04/10 06:37:01;;;;;;;6.15;1.15;;;4.10;99.90;;;;;;5095164;28;20090;-77
2022/04/10 06:39:27;;;;;;;8.65;1.38;;;4.20;99.90;;;;;;5094461;28;20040;-77
2022/04/10 06:41:53;;;;;;;3.83;1.23;;;4.30;99.90;;;;;;5113494;28;20035;-77
2022/04/10 06:44:18;;;;;;;5.70;1.58;;;4.40;99.90;;;;;;5078549;28;20044;-77
2022/04/10 06:46:44;;;;;;;3.20;1.65;;;4.60;99.90;;;;;;5112687;28;20402;-77
2022/04/10 06:49:12;;;;;;;11.95;2.03;;;4.70;99.90;;;;;;5095115;28;20055;-77
2022/04/10 06:51:38;;;;;;;5.97;1.60;;;4.80;99.90;;;;;;5113193;28;20043;-77
2022/04/10 06:54:04;;;;;;;6.10;1.15;;;4.80;99.90;;;;;;5094259;28;20052;-77
2022/04/10 06:56:30;;;;;;;10.77;1.38;;;4.90;99.90;;;;;;5097028;28;20054;-77
2022/04/10 06:58:56;;;;;;;5.95;1.98;;;5.00;99.90;;;;;;5098571;28;20058;-77
2022/04/10 07:01:22;;;;;;;5.95;1.23;;;5.00;99.90;;;;;;5116017;28;20066;-77
2022/04/10 07:03:48;;;;;;;8.52;1.73;;;5.10;99.90;;;;;;5098591;28;20043;-77
2022/04/10 07:06:14;;;;;;;10.57;2.78;;;5.20;99.90;;;;;;5116865;28;20039;-77
2022/04/10 07:08:39;;;;;;;11.80;1.63;;;5.30;99.90;;;;;;5097611;28;20109;-77
2022/04/10 07:11:06;;;;;;;16.25;2.03;;;5.50;99.90;;;;;;5116831;28;20051;-77
2022/04/10 07:13:31;;;;;;;10.13;2.80;;;5.50;99.90;;;;;;5098143;28;20052;-77
2022/04/10 07:15:57;;;;;;;7.85;1.88;;;5.60;99.90;;;;;;5115745;28;20084;-76
2022/04/10 07:18:23;;;;;;;14.02;2.28;;;5.70;99.90;;;;;;5116440;28;20047;-77
2022/04/10 07:20:49;;;;;;;7.55;1.80;;;5.80;99.90;;;;;;5116522;28;20040;-77
2022/04/10 07:25:59;;;;;;;16.17;3.42;;;5.90;99.90;;;;;;5098153;28;20047;-77
2022/04/10 07:28:25;;;;;;;11.82;1.90;;;5.90;99.90;;;;;;5115504;28;20050;-77
2022/04/10 07:30:51;;;;;;;13.48;2.15;;;5.90;99.90;;;;;;5116250;28;20047;-77
2022/04/10 07:33:17;;;;;;;12.82;3.25;;;5.90;99.90;;;;;;5116316;28;20043;-77
2022/04/10 07:35:44;;;;;;;9.30;2.22;;;5.90;99.90;;;;;;5115478;28;20097;-77
2022/04/10 07:38:10;;;;;;;6.18;1.85;;;6.00;99.90;;;;;;5097950;28;20040;-77
2022/04/10 07:40:39;;;;;;;8.43;1.73;;;6.20;99.90;;;;;;5097795;28;20052;-77
2022/04/10 07:43:05;;;;;;;14.65;1.80;;;6.20;99.90;;;;;;5115283;28;20565;-77
2022/04/10 07:48:17;;;;;;;10.75;2.15;;;6.40;99.90;;;;;;5116128;28;20043;-77
2022/04/10 07:50:43;;;;;;;9.13;1.73;;;6.50;99.90;;;;;;5096786;28;20055;-78
2022/04/10 07:53:09;;;;;;;13.10;2.40;;;6.70;99.90;;;;;;5080554;28;20052;-77
2022/04/10 07:55:34;;;;;;;13.45;1.73;;;6.90;99.90;;;;;;5115753;28;20051;-78
2022/04/10 07:58:01;;;;;;;14.50;2.42;;;7.10;99.90;;;;;;5096788;28;20047;-77
2022/04/10 08:00:32;;;;;;;9.50;1.52;;;7.30;99.90;;;;;;5115702;28;20047;-77
2022/04/10 08:03:00;;;;;;;11.25;2.22;;;7.30;99.90;;;;;;5115862;28;20036;-77
2022/04/10 08:05:26;;;;;;;9.77;1.52;;;7.20;99.90;;;;;;5114929;28;20119;-77
2022/04/10 08:07:52;;;;;;;14.52;2.53;;;7.10;99.90;;;;;;5114284;28;20627;-76
2022/04/10 08:10:18;;;;;;;9.05;1.75;;;7.00;99.90;;;;;;5096693;28;20130;-77
2022/04/10 08:12:44;;;;;;;13.02;1.73;;;6.90;99.90;;;;;;5115402;28;20039;-77
2022/04/10 08:15:13;;;;;;;10.60;1.92;;;6.80;99.90;;;;;;5097601;28;20051;-77
2022/04/10 08:17:39;;;;;;;7.65;1.92;;;6.70;99.90;;;;;;5114574;28;20047;-75
2022/04/10 08:20:07;;;;;;;17.13;2.03;;;6.60;99.90;;;;;;5115350;28;20436;-77
2022/04/10 08:22:34;;;;;;;8.35;3.03;;;6.70;99.90;;;;;;5115411;28;20047;-77
2022/04/10 08:25:02;;;;;;;10.43;1.70;;;6.90;99.90;;;;;;5062730;28;20142;-77
2022/04/10 08:27:29;;;;;;;16.67;2.85;;;7.00;99.90;;;;;;5115212;28;20047;-77
2022/04/10 08:29:55;;;;;;;15.13;1.88;;;7.10;99.90;;;;;;5115183;28;20044;-77
2022/04/10 08:32:21;;;;;;;8.75;1.92;;;7.20;99.90;;;;;;5114366;28;20394;-77
2022/04/10 08:34:47;;;;;;;8.93;1.65;;;7.30;99.90;;;;;;5115113;28;20116;-77
2022/04/10 08:37:13;;;;;;;4.90;1.20;;;7.30;99.90;;;;;;5115040;28;20028;-77
2022/04/10 08:39:39;;;;;;;6.80;2.10;;;7.40;99.90;;;;;;5114302;28;20499;-76
2022/04/10 08:42:06;;;;;;;9.35;1.67;;;7.50;99.90;;;;;;5096707;28;20089;-77
2022/04/10 08:44:33;;;;;;;11.70;1.63;;;7.60;99.90;;;;;;5096556;28;20494;-77
2022/04/10 08:47:00;;;;;;;12.05;1.67;;;7.60;99.90;;;;;;5113915;28;20073;-76
2022/04/10 08:49:29;;;;;;;11.05;2.67;;;7.70;99.90;;;;;;5114636;28;20118;-75
2022/04/10 08:51:56;;;;;;;10.50;1.45;;;7.80;99.90;;;;;;5114636;28;20056;-76
2022/04/10 08:54:23;;;;;;;6.22;0.93;;;7.80;99.90;;;;;;5113885;28;20055;-76
2022/04/10 08:56:50;;;;;;;5.72;1.30;;;7.90;99.90;;;;;;5114654;28;20448;-76
2022/04/10 08:59:20;;;;;;;10.55;2.33;;;8.00;99.90;;;;;;5114691;28;20097;-76
2022/04/10 09:01:50;;;;;;;6.07;1.55;;;8.10;99.90;;;;;;5114245;28;20100;-77
2022/04/10 09:04:16;;;;;;;8.80;1.70;;;8.00;99.90;;;;;;5079467;28;20482;-77
2022/04/10 09:06:57;;;;;;;6.30;1.77;;;8.10;99.90;;;;;;5113554;28;20039;-77
2022/04/10 09:09:23;;;;;;;10.93;1.90;;;8.10;99.90;;;;;;5114346;28;20494;-77
2022/04/10 09:11:52;;;;;;;5.28;1.42;;;8.10;99.90;;;;;;5096271;28;20061;-77
2022/04/10 09:14:27;;;;;;;10.85;1.50;;;8.00;99.90;;;;;;5113795;28;20059;-77
2022/04/10 09:17:14;;;;;;;4.40;1.17;;;7.80;99.90;;;;;;5114444;28;20383;-77
2022/04/10 09:19:42;;;;;;;12.07;1.95;;;7.60;99.90;;;;;;5095752;28;20119;-76
2022/04/10 09:22:26;;;;;;;7.05;1.63;;;7.40;99.90;;;;;;5113286;28;20048;-77
2022/04/10 09:25:12;;;;;;;10.38;2.25;;;7.30;99.90;;;;;;5096240;28;20112;-77
2022/04/10 09:27:45;;;;;;;15.32;2.22;;;7.30;99.90;;;;;;5113339;28;20048;-77
2022/04/10 09:30:16;;;;;;;7.75;1.35;;;7.40;99.90;;;;;;5114121;28;20403;-76
2022/04/10 09:32:47;;;;;;;16.83;2.20;;;7.50;99.90;;;;;;5114064;28;20048;-76
2022/04/10 09:35:17;;;;;;;8.15;2.17;;;7.60;99.90;;;;;;5113212;28;20036;-76
2022/04/10 09:37:54;;;;;;;13.10;2.10;;;7.60;99.90;;;;;;5114148;28;20127;-77
2022/04/10 09:40:30;;;;;;;9.07;2.10;;;7.70;99.90;;;;;;5114320;28;20059;-77
2022/04/10 09:43:06;;;;;;;7.07;1.88;;;8.10;99.90;;;;;;5113248;28;20066;-77
2022/04/10 09:45:35;;;;;;;8.75;1.55;;;8.30;99.90;;;;;;5113796;28;20506;-77
2022/04/10 09:48:29;;;;;;;9.38;1.38;;;8.40;99.90;;;;;;5113827;28;20050;-77
2022/04/10 09:51:00;;;;;;;7.22;1.38;;;8.30;99.90;;;;;;5113365;28;20092;-77
2022/04/10 09:53:27;;;;;;;7.60;1.80;;;8.20;99.90;;;;;;5095238;28;20055;-77
2022/04/10 09:56:02;;;;;;;6.28;1.77;;;8.20;99.90;;;;;;5113144;28;20075;-77
2022/04/10 09:58:29;;;;;;;10.90;1.98;;;8.40;99.90;;;;;;5096086;28;20047;-77
2022/04/10 10:00:56;;;;;;;5.75;1.13;;;8.60;99.90;;;;;;5113911;28;20115;-77
2022/04/10 10:03:24;;;;;;;10.00;2.05;;;8.60;99.90;;;;;;5113042;28;20043;-77
2022/04/10 10:05:54;;;;;;;10.20;3.47;;;8.60;99.90;;;;;;5113683;28;20036;-77
2022/04/10 10:08:21;;;;;;;9.80;2.03;;;8.50;99.90;;;;;;5113926;28;20096;-77
2022/04/10 10:10:47;;;;;;;10.13;1.90;;;8.40;99.90;;;;;;5112779;28;20054;-77
2022/04/10 10:13:13;;;;;;;11.77;2.22;;;8.50;99.90;;;;;;5113664;28;20043;-77
2022/04/10 10:15:40;;;;;;;14.98;3.08;;;8.60;99.90;;;;;;5113572;28;20039;-77
2022/04/10 10:18:09;;;;;;;6.57;1.38;;;8.90;99.90;;;;;;5094923;28;20044;-77
2022/04/10 10:20:36;;;;;;;10.40;1.42;;;9.10;99.90;;;;;;5113719;28;20063;-76
2022/04/10 10:23:12;;;;;;;10.38;2.22;;;9.40;99.90;;;;;;5113716;28;20062;-77
2022/04/10 10:25:46;;;;;;;11.82;1.88;;;9.60;99.90;;;;;;5094948;28;20043;-77
2022/04/10 10:28:36;;;;;;;6.55;1.55;;;9.70;99.90;;;;;;5095321;28;20046;-76
2022/04/10 10:31:30;;;;;;;7.20;1.55;;;9.80;99.90;;;;;;5114246;28;20050;-77
2022/04/10 10:34:01;;;;;;;10.38;1.55;;;10.10;99.90;;;;;;5117312;28;20517;-77
2022/04/10 10:36:27;;;;;;;5.53;1.50;;;10.00;99.90;;;;;;5117429;28;20065;-77
2022/04/10 10:38:55;;;;;;;4.40;1.55;;;9.60;99.90;;;;;;5116490;28;20122;-77
2022/04/10 10:41:20;;;;;;;9.93;1.40;;;9.40;99.90;;;;;;5099142;28;20106;-77
2022/04/10 10:43:47;;;;;;;8.82;1.40;;;9.30;99.90;;;;;;5117110;28;20490;-77
2022/04/10 10:46:20;;;;;;;7.20;1.35;;;9.40;99.90;;;;;;5098389;28;20127;-77
2022/04/10 10:48:46;;;;;;;10.02;1.75;;;9.50;99.90;;;;;;5098886;28;20053;-77
2022/04/10 10:51:11;;;;;;;6.78;1.40;;;9.70;99.90;;;;;;5116954;28;20035;-77
2022/04/10 10:53:42;;;;;;;8.98;1.48;;;9.90;99.90;;;;;;5115975;28;20056;-77
2022/04/10 10:56:26;;;;;;;6.00;1.27;;;10.00;99.90;;;;;;5116977;28;20062;-77
2022/04/10 10:58:56;;;;;;;5.67;1.50;;;9.80;99.90;;;;;;5117118;28;20080;-76
2022/04/10 11:01:25;;;;;;;6.30;1.40;;;9.70;99.90;;;;;;5117024;28;20100;-76
2022/04/10 11:04:06;;;;;;;4.05;1.05;;;9.40;99.90;;;;;;5116895;28;20044;-77
2022/04/10 11:06:43;;;;;;;5.32;1.35;;;9.50;99.90;;;;;;5116243;28;20394;-77
2022/04/10 11:09:19;;;;;;;8.50;1.17;;;9.80;99.90;;;;;;5116916;28;20040;-76
2022/04/10 11:11:45;;;;;;;5.72;1.30;;;10.00;99.90;;;;;;5116698;28;20615;-77
2022/04/10 11:14:31;;;;;;;7.35;1.33;;;10.20;99.90;;;;;;5115655;28;20486;-77
2022/04/10 11:17:18;;;;;;;4.25;1.42;;;10.40;99.90;;;;;;5116702;28;20044;-78
2022/04/10 11:19:48;;;;;;;6.32;1.50;;;10.20;99.90;;;;;;5116441;28;20072;-77
2022/04/10 11:22:22;;;;;;;7.68;1.42;;;10.20;99.90;;;;;;5115693;28;20088;-77
2022/04/10 11:24:57;;;;;;;4.68;1.23;;;10.30;99.90;;;;;;5116613;28;20070;-76
2022/04/10 11:27:44;;;;;;;;;;;10.40;99.90;;;;;;5116103;28;20082;-78
2022/04/10 11:30:12;;;;;;;4.28;1.27;;;10.50;99.90;;;;;;5116413;28;19919;-76
2022/04/10 11:32:43;;;;;;;6.65;1.50;;;10.70;99.90;;;;;;5097967;28;20044;-78
2022/04/10 11:35:21;;;;;;;11.35;1.45;;;10.60;99.90;;;;;;5115366;28;20039;-77
2022/04/10 11:37:50;;;;;;;7.30;1.10;;;10.40;99.30;;;;;;5116811;28;20043;-78
2022/04/10 11:40:24;;;;;;;4.00;1.15;;;10.30;99.90;;;;;;5116303;28;20439;-77
2022/04/10 11:42:51;;;;;;;;;;;10.30;99.90;;;;;;5097169;28;20130;-78
2022/04/10 11:45:18;;;;;;;7.93;1.50;;;10.50;99.90;;;;;;5098112;28;19920;-77
2022/04/10 11:47:45;;;;;;;8.57;1.70;;;10.60;99.90;;;;;;5116134;28;20078;-77
2022/04/10 11:50:14;;;;;;;7.88;1.77;;;10.40;99.90;;;;;;5096954;28;20048;-77
2022/04/10 11:52:41;;;;;;;11.15;1.30;;;10.20;99.90;;;;;;5115710;28;20046;-77
2022/04/10 11:55:08;;;;;;;6.38;1.40;;;10.10;99.90;;;;;;5097598;28;20494;-77
2022/04/10 11:57:38;;;;;;;4.57;1.38;;;9.80;99.90;;;;;;5115170;28;20051;-77
2022/04/10 12:00:09;;;;;;;9.15;2.03;;;9.80;99.90;;;;;;5115761;28;20490;-78
2022/04/10 12:02:37;;;;;;;5.50;1.35;;;9.90;99.90;;;;;;5115133;28;20071;-77
2022/04/10 12:05:03;;;;;;;6.72;1.20;;;10.10;99.90;;;;;;5115544;28;20130;-77
2022/04/10 12:07:29;;;;;;;9.90;2.17;;;10.30;99.90;;;;;;5115775;28;20161;-77
2022/04/10 12:09:55;;;;;;;9.32;1.70;;;10.40;99.40;;;;;;5114757;28;20078;-77
2022/04/10 12:12:36;;;;;;;5.88;1.05;;;10.50;99.90;;;;;;5115659;28;20046;-77
2022/04/10 12:15:13;;;;;;;9.82;1.23;;;10.80;99.10;;;;;;5115628;28;20051;-77
2022/04/10 12:17:38;;;;;;;4.35;0.93;;;10.80;99.40;;;;;;5114909;28;20360;-77
2022/04/10 12:20:05;;;;;;;4.13;1.27;;;11.10;99.70;;;;;;5115249;28;20050;-77
2022/04/10 12:22:30;;;;;;;16.83;1.88;;;11.00;97.80;;;;;;5097067;28;20086;-77
2022/04/10 12:24:58;;;;;;;6.32;1.27;;;10.90;98.30;;;;;;5114649;28;20082;-77
2022/04/10 12:27:25;;;;;;;5.88;1.70;;;10.60;98.00;;;;;;5115376;28;20101;-78
2022/04/10 12:29:51;;;;;;;3.70;0.90;;;10.30;98.70;;;;;;5115332;28;20097;-77
2022/04/10 12:32:17;;;;;;;6.50;1.40;;;10.20;97.90;;;;;;5114216;28;20047;-77
2022/04/10 12:34:44;;;;;;;4.25;1.00;;;10.20;99.20;;;;;;5115056;28;20047;-76
2022/04/10 12:37:12;;;;;;;5.85;1.27;;;10.40;97.10;;;;;;5097097;28;20039;-77
2022/04/10 12:39:38;;;;;;;6.05;1.38;;;10.70;96.70;;;;;;5114337;28;20058;-77
2022/04/10 12:42:09;;;;;;;8.35;1.23;;;10.90;98.00;;;;;;5114955;28;20433;-78
2022/04/10 12:44:37;;;;;;;6.07;1.00;;;11.20;99.40;;;;;;5114208;28;20035;-77
2022/04/10 12:47:04;;;;;;;7.32;1.10;;;11.20;98.40;;;;;;5096832;28;20086;-77
2022/04/10 12:49:30;;;;;;;12.63;1.35;;;11.10;97.80;;;;;;5096465;28;20052;-78
2022/04/10 12:52:00;;;;;;;5.63;1.40;;;11.20;97.90;;;;;;5113924;28;20134;-78
2022/04/10 12:54:39;;;;;;;3.60;1.60;;;11.30;97.80;;;;;;5114161;28;20043;-77
2022/04/10 12:57:13;;;;;;;5.43;0.98;;;11.60;96.20;;;;;;5096380;28;20077;-77
2022/04/10 12:59:46;;;;;;;6.20;0.82;;;11.40;96.10;;;;;;5080083;28;20043;-77
2022/04/10 13:02:26;;;;;;;8.88;1.00;;;11.20;93.90;;;;;;5114667;28;20047;-77
2022/04/10 13:04:56;;;;;;;12.00;1.45;;;10.80;93.60;;;;;;5096430;28;20047;-78